createdAt,value
2019-04-10T00:01:45.934Z,34.50
2019-04-10T00:04:12.594Z,34.40
2019-04-10T00:06:39.492Z,34.40
2019-04-10T00:09:05.042Z,34.30
2019-04-10T00:11:32.326Z,34.50
2019-04-10T00:13:58.668Z,34.30
2019-04-10T00:16:24.472Z,34.30
2019-04-10T00:18:50.756Z,34.30
2019-04-10T00:21:17.502Z,34.30
2019-04-10T00:23:43.696Z,34.30
2019-04-10T00:26:09.967Z,34.30
2019-04-10T00:28:36.299Z,34.30
2019-04-10T00:31:02.855Z,34.20
2019-04-10T00:33:29.977Z,34.20
2019-04-10T00:35:56.257Z,34.10
2019-04-10T00:38:22.660Z,34.10
2019-04-10T00:40:49.953Z,34.10
2019-04-10T00:43:15.550Z,34.10
2019-04-10T00:45:42.188Z,34.10
2019-04-10T00:48:08.596Z,34.10
2019-04-10T00:50:36.993Z,34.00
2019-04-10T00:53:03.009Z,34.00
2019-04-10T00:55:30.126Z,34.00
2019-04-10T00:57:56.231Z,33.90
2019-04-10T01:00:23.566Z,34.00
2019-04-10T01:02:49.151Z,33.90
2019-04-10T01:05:15.278Z,34.00
2019-04-10T01:07:44.112Z,33.90
2019-04-10T01:10:08.283Z,33.80
2019-04-10T01:12:34.597Z,33.80
2019-04-10T01:15:00.995Z,33.80
2019-04-10T01:17:28.889Z,33.70
2019-04-10T01:19:56.434Z,33.70
2019-04-10T01:22:23.926Z,33.70
2019-04-10T01:24:50.216Z,33.70
2019-04-10T01:27:16.236Z,33.70
2019-04-10T01:29:44.080Z,33.70
2019-04-10T01:32:10.365Z,33.70
2019-04-10T01:34:37.847Z,33.50
2019-04-10T01:37:03.173Z,33.60
2019-04-10T01:39:30.472Z,33.60
2019-04-10T01:41:56.442Z,33.50
2019-04-10T01:44:24.638Z,33.50
2019-04-10T01:46:50.772Z,33.50
2019-04-10T01:49:17.449Z,33.40
2019-04-10T01:51:43.522Z,33.40
2019-04-10T01:54:09.492Z,33.40
2019-04-10T01:56:36.811Z,33.40
2019-04-10T01:59:02.583Z,33.40
2019-04-10T02:01:28.799Z,33.30
2019-04-10T02:03:55.278Z,33.10
2019-04-10T02:06:21.631Z,33.20
2019-04-10T02:08:48.049Z,33.10
2019-04-10T02:11:15.421Z,33.20
2019-04-10T02:13:41.336Z,33.00
2019-04-10T02:16:08.237Z,33.10
2019-04-10T02:18:34.003Z,33.00
2019-04-10T02:21:01.155Z,33.00
2019-04-10T02:23:26.691Z,33.00
2019-04-10T02:25:53.103Z,33.00
2019-04-10T02:28:20.659Z,32.90
2019-04-10T02:30:46.086Z,32.90
2019-04-10T02:33:13.798Z,32.80
2019-04-10T02:35:40.067Z,32.80
2019-04-10T02:38:22.636Z,32.80
2019-04-10T02:40:33.035Z,32.70
2019-04-10T02:42:59.038Z,32.70
2019-04-10T02:45:25.861Z,32.80
2019-04-10T02:47:52.776Z,32.70
2019-04-10T02:50:18.805Z,32.70
2019-04-10T02:52:45.705Z,32.70
2019-04-10T02:55:11.850Z,32.70
2019-04-10T02:57:39.098Z,32.70
2019-04-10T03:00:05.480Z,32.50
2019-04-10T03:02:32.876Z,32.50
2019-04-10T03:04:57.544Z,32.50
2019-04-10T03:07:24.172Z,32.50
2019-04-10T03:10:02.483Z,33.20
2019-04-10T03:12:17.205Z,32.50
2019-04-10T03:14:45.974Z,32.40
2019-04-10T03:17:10.138Z,32.40
2019-04-10T03:19:36.508Z,32.40
2019-04-10T03:22:03.847Z,32.50
2019-04-10T03:24:29.511Z,32.40
2019-04-10T03:26:56.173Z,32.30
2019-04-10T03:29:22.044Z,32.40
2019-04-10T03:31:50.490Z,32.40
2019-04-10T03:34:16.928Z,32.30
2019-04-10T03:36:41.284Z,32.30
2019-04-10T03:39:08.713Z,32.30
2019-04-10T03:41:34.504Z,32.30
2019-04-10T03:44:00.636Z,32.20
2019-04-10T03:46:27.678Z,32.30
2019-04-10T03:48:53.553Z,32.20
2019-04-10T03:51:20.654Z,32.20
2019-04-10T03:53:46.653Z,32.40
2019-04-10T03:56:13.733Z,32.30
2019-04-10T03:58:39.793Z,32.20
2019-04-10T04:01:06.902Z,32.10
2019-04-10T04:03:32.948Z,32.10
2019-04-10T04:06:00.024Z,32.10
2019-04-10T04:08:25.699Z,32.00
2019-04-10T04:10:51.382Z,32.10
2019-04-10T04:13:17.575Z,32.10
2019-04-10T04:15:44.421Z,32.00
2019-04-10T04:18:10.929Z,32.10
2019-04-10T04:20:37.159Z,32.00
2019-04-10T04:23:03.505Z,32.00
2019-04-10T04:25:30.397Z,32.00
2019-04-10T04:27:56.252Z,31.90
2019-04-10T04:30:22.458Z,31.80
2019-04-10T04:32:48.892Z,31.90
2019-04-10T04:35:15.530Z,31.80
2019-04-10T04:37:42.248Z,32.00
2019-04-10T04:40:09.040Z,31.80
2019-04-10T04:42:35.141Z,31.70
2019-04-10T04:45:01.268Z,31.80
2019-04-10T04:47:28.573Z,31.80
2019-04-10T04:49:54.428Z,31.80
2019-04-10T04:52:20.767Z,31.70
2019-04-10T04:54:47.724Z,31.80
2019-04-10T04:57:13.403Z,31.60
2019-04-10T04:59:40.649Z,31.60
2019-04-10T05:02:06.059Z,31.60
2019-04-10T05:04:33.640Z,31.60
2019-04-10T05:06:59.847Z,31.70
2019-04-10T05:09:31.118Z,31.60
2019-04-10T05:11:51.598Z,31.50
2019-04-10T05:14:18.016Z,31.50
2019-04-10T05:16:44.255Z,31.60
2019-04-10T05:19:10.470Z,31.60
2019-04-10T05:21:37.298Z,31.50
2019-04-10T05:24:03.283Z,31.40
2019-04-10T05:26:29.435Z,31.50
2019-04-10T05:28:55.804Z,31.40
2019-04-10T05:31:22.027Z,31.30
2019-04-10T05:33:49.147Z,31.40
2019-04-10T05:36:15.344Z,31.30
2019-04-10T05:38:41.876Z,31.20
2019-04-10T05:41:07.570Z,31.20
2019-04-10T05:43:34.223Z,31.10
2019-04-10T05:46:00.421Z,31.10
2019-04-10T05:48:27.843Z,31.00
2019-04-10T05:51:00.907Z,31.00
2019-04-10T05:53:20.989Z,31.00
2019-04-10T05:55:47.395Z,30.90
2019-04-10T05:58:13.824Z,30.90
2019-04-10T06:00:40.994Z,30.90
2019-04-10T06:03:06.517Z,30.90
2019-04-10T06:05:34.087Z,30.90
2019-04-10T06:07:59.388Z,30.90
2019-04-10T06:10:26.704Z,30.90
2019-04-10T06:12:52.997Z,30.90
2019-04-10T06:15:19.092Z,30.80
2019-04-10T06:17:45.097Z,30.70
2019-04-10T06:20:11.353Z,30.80
2019-04-10T06:22:38.792Z,30.80
2019-04-10T06:25:06.057Z,30.90
2019-04-10T06:27:30.851Z,30.80
2019-04-10T06:29:57.295Z,30.90
2019-04-10T06:32:23.674Z,30.80
2019-04-10T06:34:50.235Z,30.80
2019-04-10T06:37:16.327Z,30.80
2019-04-10T06:39:44.445Z,30.90
2019-04-10T06:42:08.992Z,30.70
2019-04-10T06:44:36.305Z,30.70
2019-04-10T06:47:02.183Z,30.60
2019-04-10T06:49:29.065Z,30.70
2019-04-10T06:51:54.315Z,30.70
2019-04-10T06:54:22.767Z,30.60
2019-04-10T06:56:48.856Z,30.70
2019-04-10T06:59:16.181Z,30.70
2019-04-10T07:01:49.556Z,30.70
2019-04-10T07:04:08.402Z,30.70
2019-04-10T07:06:47.370Z,30.60
2019-04-10T07:09:00.818Z,30.40
2019-04-10T07:11:30.515Z,30.50
2019-04-10T07:13:54.860Z,30.50
2019-04-10T07:16:20.148Z,30.50
2019-04-10T07:18:49.009Z,30.50
2019-04-10T07:21:12.975Z,30.40
2019-04-10T07:23:39.207Z,30.40
2019-04-10T07:26:06.026Z,30.40
2019-04-10T07:28:33.190Z,30.40
2019-04-10T07:31:04.643Z,30.30
2019-04-10T07:33:24.915Z,30.30
2019-04-10T07:35:54.594Z,30.30
2019-04-10T07:38:18.380Z,30.30
2019-04-10T07:40:44.960Z,30.30
2019-04-10T07:43:11.189Z,30.30
2019-04-10T07:45:36.905Z,30.20
2019-04-10T07:48:04.446Z,30.30
2019-04-10T07:50:30.295Z,30.30
2019-04-10T07:52:56.192Z,30.30
2019-04-10T07:55:23.887Z,30.20
2019-04-10T07:57:50.269Z,30.20
2019-04-10T08:00:16.005Z,30.20
2019-04-10T08:02:42.754Z,30.10
2019-04-10T08:05:08.257Z,30.20
2019-04-10T08:07:36.373Z,30.20
2019-04-10T08:10:01.425Z,30.20
2019-04-10T08:12:38.515Z,30.10
2019-04-10T08:14:54.050Z,30.20
2019-04-10T08:17:20.100Z,30.10
2019-04-10T08:19:46.311Z,30.20
2019-04-10T08:22:12.811Z,30.20
2019-04-10T08:24:39.218Z,30.10
2019-04-10T08:27:05.677Z,30.20
2019-04-10T08:29:32.395Z,30.30
2019-04-10T08:31:59.207Z,30.10
2019-04-10T08:34:25.983Z,30.20
2019-04-10T08:36:53.630Z,30.80
2019-04-10T08:39:32.037Z,30.20
2019-04-10T08:41:44.275Z,30.20
2019-04-10T08:44:10.915Z,30.10
2019-04-10T08:46:37.807Z,30.20
2019-04-10T08:49:03.758Z,30.10
2019-04-10T08:51:31.064Z,30.20
2019-04-10T08:53:56.895Z,30.20
2019-04-10T08:56:22.837Z,30.20
2019-04-10T08:58:49.770Z,30.20
2019-04-10T09:01:15.712Z,30.20
2019-04-10T09:03:41.940Z,30.20
2019-04-10T09:06:09.218Z,30.20
2019-04-10T09:08:35.116Z,30.20
2019-04-10T09:11:02.864Z,30.30
2019-04-10T09:13:28.549Z,30.10
2019-04-10T09:15:54.700Z,30.20
2019-04-10T09:18:21.106Z,30.20
2019-04-10T09:20:47.407Z,30.30
2019-04-10T09:23:23.616Z,30.20
2019-04-10T09:25:41.477Z,30.40
2019-04-10T09:28:06.671Z,30.30
2019-04-10T09:30:33.866Z,30.30
2019-04-10T09:33:00.703Z,30.40
2019-04-10T09:35:26.627Z,30.40
2019-04-10T09:37:52.475Z,30.30
2019-04-10T09:40:18.887Z,30.40
2019-04-10T09:42:45.978Z,30.40
2019-04-10T09:45:11.726Z,30.40
2019-04-10T09:47:37.926Z,30.50
2019-04-10T09:50:04.184Z,30.40
2019-04-10T09:52:32.054Z,30.40
2019-04-10T09:54:57.690Z,30.30
2019-04-10T09:57:24.582Z,30.40
2019-04-10T09:59:50.533Z,30.40
2019-04-10T10:02:17.664Z,30.50
2019-04-10T10:04:44.392Z,31.30
2019-04-10T10:07:10.648Z,30.60
2019-04-10T10:09:38.697Z,30.60
2019-04-10T10:12:04.936Z,30.60
2019-04-10T10:14:33.240Z,30.70
2019-04-10T10:16:58.050Z,30.60
2019-04-10T10:19:24.077Z,30.60
2019-04-10T10:21:50.552Z,30.60
2019-04-10T10:24:16.960Z,30.70
2019-04-10T10:26:46.057Z,30.70
2019-04-10T10:29:11.301Z,30.70
2019-04-10T10:31:37.946Z,30.80
2019-04-10T10:34:03.868Z,30.70
2019-04-10T10:36:36.785Z,30.80
2019-04-10T10:39:04.876Z,30.80
2019-04-10T10:41:22.539Z,30.80
2019-04-10T10:43:48.897Z,31.50
2019-04-10T10:46:15.521Z,30.90
2019-04-10T10:48:42.047Z,31.00
2019-04-10T10:51:08.779Z,31.10
2019-04-10T10:53:35.162Z,31.00
2019-04-10T10:56:02.252Z,31.10
2019-04-10T10:58:28.050Z,31.10
2019-04-10T11:00:55.619Z,31.10
2019-04-10T11:03:20.944Z,31.20
2019-04-10T11:05:47.287Z,31.10
2019-04-10T11:08:13.514Z,31.10
2019-04-10T11:10:41.068Z,31.10
2019-04-10T11:13:06.583Z,31.20
2019-04-10T11:15:32.727Z,31.30
2019-04-10T11:18:00.170Z,31.30
2019-04-10T11:20:25.703Z,31.40
2019-04-10T11:22:51.961Z,31.40
2019-04-10T11:25:18.350Z,31.40
2019-04-10T11:27:44.615Z,31.40
2019-04-10T11:30:12.550Z,31.40
2019-04-10T11:32:38.181Z,31.40
2019-04-10T11:35:04.563Z,31.50
2019-04-10T11:37:37.465Z,31.40
2019-04-10T11:39:58.431Z,31.40
2019-04-10T11:42:23.423Z,31.50
2019-04-10T11:44:51.717Z,31.50
2019-04-10T11:47:17.352Z,31.50
2019-04-10T11:49:44.425Z,31.50
2019-04-10T11:52:10.435Z,31.60
2019-04-10T11:54:40.977Z,31.60
2019-04-10T11:57:04.167Z,31.60
2019-04-10T11:59:29.475Z,31.60
2019-04-10T12:01:58.969Z,31.60
2019-04-10T12:04:23.088Z,31.60
2019-04-10T12:06:51.929Z,31.60
2019-04-10T12:11:41.534Z,31.70
2019-04-10T12:14:07.661Z,31.70
2019-04-10T12:16:33.488Z,31.70
2019-04-10T12:18:59.880Z,31.70
2019-04-10T12:21:26.247Z,31.70
2019-04-10T12:23:53.422Z,31.80
2019-04-10T12:26:19.931Z,31.70
2019-04-10T12:28:46.456Z,31.60
2019-04-10T12:31:12.012Z,32.30
2019-04-10T12:33:38.318Z,31.70
2019-04-10T12:36:04.620Z,31.70
2019-04-10T12:38:31.921Z,31.80
2019-04-10T12:40:57.633Z,31.80
2019-04-10T12:43:25.779Z,31.80
2019-04-10T12:45:50.867Z,31.80
2019-04-10T12:48:17.295Z,32.10
2019-04-10T12:50:43.773Z,31.80
2019-04-10T12:53:10.184Z,31.90
2019-04-10T12:55:36.750Z,31.80
2019-04-10T12:58:07.612Z,31.80
2019-04-10T13:00:29.915Z,32.00
2019-04-10T13:02:56.306Z,31.90
2019-04-10T13:05:25.043Z,31.90
2019-04-10T13:07:51.925Z,32.00
2019-04-10T13:10:18.349Z,31.90
2019-04-10T13:12:45.260Z,32.00
2019-04-10T13:15:10.948Z,31.90
2019-04-10T13:17:36.968Z,32.00
2019-04-10T13:20:03.220Z,32.00
2019-04-10T13:22:29.619Z,32.00
2019-04-10T13:24:56.081Z,32.00
2019-04-10T13:27:23.101Z,32.00
2019-04-10T13:29:49.507Z,32.00
2019-04-10T13:32:16.867Z,32.00
2019-04-10T13:34:42.430Z,32.00
2019-04-10T13:37:08.873Z,32.00
2019-04-10T13:39:35.500Z,32.00
2019-04-10T13:42:03.032Z,32.10
2019-04-10T13:44:28.785Z,32.00
2019-04-10T13:46:55.317Z,32.00
2019-04-10T13:49:22.259Z,32.10
2019-04-10T13:51:49.979Z,32.10
2019-04-10T13:54:16.137Z,32.10
2019-04-10T13:56:41.557Z,32.10
2019-04-10T13:59:08.879Z,32.10
2019-04-10T14:01:34.220Z,32.10
2019-04-10T14:04:00.914Z,32.10
2019-04-10T14:06:27.489Z,32.10
2019-04-10T14:09:07.861Z,32.10
2019-04-10T14:11:19.913Z,32.10
2019-04-10T14:13:46.270Z,32.10
2019-04-10T14:16:12.827Z,32.10
2019-04-10T14:18:39.256Z,32.20
2019-04-10T14:21:11.238Z,32.20
2019-04-10T14:23:31.958Z,32.20
2019-04-10T14:25:58.354Z,32.20
2019-04-10T14:28:24.914Z,32.20
2019-04-10T14:30:51.589Z,32.20
2019-04-10T14:33:17.596Z,32.20
2019-04-10T14:35:43.837Z,32.20
2019-04-10T14:38:10.692Z,32.20
2019-04-10T14:40:36.500Z,32.20
2019-04-10T14:43:03.229Z,32.20
2019-04-10T14:45:29.704Z,32.20
2019-04-10T14:47:56.813Z,32.30
2019-04-10T14:50:22.253Z,32.30
2019-04-10T14:52:49.474Z,32.20
2019-04-10T14:55:14.903Z,32.30
2019-04-10T14:57:41.241Z,32.30
2019-04-10T15:00:08.518Z,32.30
2019-04-10T15:02:34.744Z,32.20
2019-04-10T15:05:01.583Z,32.30
2019-04-10T15:07:27.516Z,32.30
2019-04-10T15:09:53.927Z,32.30
2019-04-10T15:12:20.587Z,32.30
2019-04-10T15:14:47.833Z,32.30
2019-04-10T15:17:13.414Z,32.30
2019-04-10T15:19:40.533Z,32.40
2019-04-10T15:22:06.099Z,32.30
2019-04-10T15:24:33.324Z,32.40
2019-04-10T15:26:58.747Z,32.40
2019-04-10T15:29:25.008Z,32.50
2019-04-10T15:31:52.283Z,32.50
2019-04-10T15:34:18.286Z,32.50
2019-04-10T15:36:45.916Z,32.50
2019-04-10T15:39:10.727Z,32.50
2019-04-10T15:41:37.166Z,32.50
2019-04-10T15:44:03.736Z,32.50
2019-04-10T15:46:30.244Z,32.50
2019-04-10T15:48:56.639Z,32.50
2019-04-10T15:51:22.857Z,32.50
2019-04-10T15:53:49.406Z,32.50
2019-04-10T15:56:15.880Z,32.50
2019-04-10T15:58:41.970Z,32.50
2019-04-10T16:01:08.421Z,32.50
2019-04-10T16:03:34.838Z,32.50
2019-04-10T16:06:01.506Z,32.50
2019-04-10T16:08:28.160Z,32.50
2019-04-10T16:10:55.130Z,32.40
2019-04-10T16:13:20.560Z,32.50
2019-04-10T16:15:48.477Z,32.50
2019-04-10T16:18:15.631Z,32.50
2019-04-10T16:20:41.318Z,32.50
2019-04-10T16:23:08.079Z,32.50
2019-04-10T16:25:34.163Z,32.50
2019-04-10T16:28:02.287Z,32.50
2019-04-10T16:30:28.669Z,32.50
2019-04-10T16:32:54.930Z,32.50
2019-04-10T16:35:21.347Z,32.50
2019-04-10T16:37:47.604Z,32.50
2019-04-10T16:40:14.999Z,32.50
2019-04-10T16:42:41.710Z,32.50
2019-04-10T16:45:07.956Z,32.50
2019-04-10T16:47:34.342Z,32.50
2019-04-10T16:49:59.750Z,32.50
2019-04-10T16:52:27.087Z,32.50
2019-04-10T16:54:53.438Z,32.50
2019-04-10T16:57:19.031Z,32.50
2019-04-10T16:59:46.645Z,32.40
2019-04-10T17:02:11.941Z,32.40
2019-04-10T17:04:38.333Z,32.40
2019-04-10T17:07:04.800Z,32.50
2019-04-10T17:09:31.011Z,32.40
2019-04-10T17:11:58.726Z,32.40
2019-04-10T17:14:23.966Z,32.40
2019-04-10T17:16:50.358Z,32.40
2019-04-10T17:19:16.763Z,32.40
2019-04-10T17:21:43.143Z,32.40
2019-04-10T17:24:09.427Z,32.40
2019-04-10T17:26:37.060Z,32.40
2019-04-10T17:29:03.010Z,32.40
2019-04-10T17:31:28.725Z,32.50
2019-04-10T17:33:56.523Z,32.40
2019-04-10T17:36:21.571Z,32.50
2019-04-10T17:38:48.981Z,32.50
2019-04-10T17:41:15.479Z,32.30
2019-04-10T17:43:41.308Z,32.50
2019-04-10T17:46:07.310Z,32.50
2019-04-10T17:48:34.859Z,32.50
2019-04-10T17:50:59.963Z,32.50
2019-04-10T17:53:26.369Z,32.50
2019-04-10T17:55:52.667Z,32.40
2019-04-10T17:58:19.224Z,32.50
2019-04-10T18:00:45.492Z,32.50
2019-04-10T18:03:15.028Z,32.40
2019-04-10T18:05:39.148Z,32.30
2019-04-10T18:08:05.131Z,32.20
2019-04-10T18:10:43.565Z,32.20
2019-04-10T18:12:58.908Z,32.10
2019-04-10T18:15:24.495Z,31.80
2019-04-10T18:17:51.365Z,31.90
2019-04-10T18:20:17.831Z,31.60
2019-04-10T18:22:44.848Z,31.60
2019-04-10T18:25:10.479Z,31.50
2019-04-10T18:27:36.859Z,31.40
2019-04-10T18:30:03.742Z,31.20
2019-04-10T18:32:29.695Z,31.00
2019-04-10T18:34:56.235Z,30.90
2019-04-10T18:37:25.097Z,30.90
2019-04-10T18:39:49.026Z,30.80
2019-04-10T18:42:15.248Z,30.70
2019-04-10T18:44:43.160Z,30.60
2019-04-10T18:47:10.965Z,30.60
2019-04-10T18:49:37.842Z,30.70
2019-04-10T18:52:03.445Z,30.40
2019-04-10T18:54:29.918Z,30.40
2019-04-10T18:56:56.361Z,30.30
2019-04-10T18:59:22.690Z,30.20
2019-04-10T19:01:49.617Z,30.80
2019-04-10T19:04:16.234Z,30.10
2019-04-10T19:06:42.793Z,30.00
2019-04-10T19:09:17.927Z,30.10
2019-04-10T19:11:36.930Z,30.00
2019-04-10T19:14:03.842Z,30.00
2019-04-10T19:16:29.749Z,30.00
2019-04-10T19:18:56.781Z,29.90
2019-04-10T19:21:22.094Z,29.90
2019-04-10T19:23:49.654Z,29.90
2019-04-10T19:26:15.497Z,29.90
2019-04-10T19:28:43.438Z,29.80
2019-04-10T19:31:12.975Z,29.70
2019-04-10T19:33:35.263Z,29.70
2019-04-10T19:36:01.581Z,29.70
2019-04-10T19:38:27.563Z,29.80
2019-04-10T19:40:54.289Z,29.70
2019-04-10T19:43:20.403Z,29.70
2019-04-10T19:45:46.603Z,29.70
2019-04-10T19:48:12.896Z,29.60
2019-04-10T19:50:39.400Z,29.60
2019-04-10T19:53:05.738Z,29.50
2019-04-10T19:55:32.166Z,29.50
2019-04-10T19:57:58.575Z,29.50
2019-04-10T20:00:25.213Z,29.60
2019-04-10T20:02:51.466Z,29.60
2019-04-10T20:05:17.971Z,29.50
2019-04-10T20:07:44.959Z,29.50
2019-04-10T20:10:10.962Z,29.40
2019-04-10T20:12:37.438Z,29.40
2019-04-10T20:15:04.422Z,29.40
2019-04-10T20:17:30.290Z,29.40
2019-04-10T20:19:57.173Z,29.30
2019-04-10T20:22:23.081Z,29.30
2019-04-10T20:24:50.811Z,29.30
2019-04-10T20:27:16.025Z,29.30
2019-04-10T20:29:43.445Z,29.30
2019-04-10T20:32:08.658Z,29.30
2019-04-10T20:34:35.785Z,29.20
2019-04-10T20:37:06.657Z,29.20
2019-04-10T20:39:27.956Z,29.20
2019-04-10T20:41:56.845Z,29.10
2019-04-10T20:44:20.711Z,29.10
2019-04-10T20:46:47.039Z,29.10
2019-04-10T20:49:14.172Z,29.10
2019-04-10T20:51:39.962Z,29.00
2019-04-10T20:54:06.657Z,29.10
2019-04-10T20:56:33.021Z,29.00
2019-04-10T20:58:59.659Z,29.00
2019-04-10T21:01:27.152Z,28.90
2019-04-10T21:03:53.511Z,28.90
2019-04-10T21:06:20.982Z,28.90
2019-04-10T21:08:46.713Z,28.90
2019-04-10T21:11:14.297Z,28.90
2019-04-10T21:13:40.686Z,28.80
2019-04-10T21:16:07.098Z,28.80
2019-04-10T21:18:33.507Z,28.80
2019-04-10T21:20:59.776Z,28.80
2019-04-10T21:23:27.145Z,28.80
2019-04-10T21:25:52.449Z,29.30
2019-04-10T21:28:18.688Z,28.70
2019-04-10T21:30:45.169Z,28.80
2019-04-10T21:33:12.129Z,28.70
2019-04-10T21:35:37.780Z,28.60
2019-04-10T21:38:04.792Z,28.60
2019-04-10T21:40:30.658Z,28.60
2019-04-10T21:42:58.087Z,28.70
2019-04-10T21:45:24.307Z,28.70
2019-04-10T21:47:50.251Z,28.60
2019-04-10T21:50:17.138Z,28.60
2019-04-10T21:52:43.459Z,28.50
2019-04-10T21:55:09.269Z,28.50
2019-04-10T21:57:35.500Z,28.50
2019-04-10T22:00:01.937Z,28.50
2019-04-10T22:02:29.427Z,29.00
2019-04-10T22:04:55.331Z,28.50
2019-04-10T22:07:21.044Z,28.40
2019-04-10T22:09:47.437Z,28.40
2019-04-10T22:12:23.914Z,28.40
2019-04-10T22:14:40.272Z,28.40
2019-04-10T22:17:06.756Z,28.40
2019-04-10T22:19:35.331Z,28.40
2019-04-10T22:22:00.026Z,28.40
2019-04-10T22:24:26.235Z,28.40
2019-04-10T22:26:54.291Z,28.30
2019-04-10T22:29:19.706Z,28.30
2019-04-10T22:31:45.940Z,28.40
2019-04-10T22:34:13.558Z,28.30
2019-04-10T22:36:39.525Z,28.30
2019-04-10T22:39:06.783Z,28.20
2019-04-10T22:41:34.165Z,28.30
2019-04-10T22:43:59.739Z,28.30
2019-04-10T22:46:26.415Z,28.30
2019-04-10T22:48:53.458Z,28.20
2019-04-10T22:51:19.303Z,28.20
2019-04-10T22:53:46.301Z,28.20
2019-04-10T22:56:12.953Z,28.20
2019-04-10T22:58:41.519Z,28.20
2019-04-10T23:01:06.885Z,28.10
2019-04-10T23:03:33.056Z,28.20
2019-04-10T23:05:59.288Z,28.20
2019-04-10T23:08:25.529Z,28.10
2019-04-10T23:10:53.033Z,28.60
2019-04-10T23:13:18.411Z,28.10
2019-04-10T23:15:44.824Z,28.10
2019-04-10T23:18:12.953Z,28.10
2019-04-10T23:20:39.609Z,28.10
2019-04-10T23:23:04.932Z,28.10
2019-04-10T23:25:32.799Z,28.10
2019-04-10T23:27:59.223Z,28.00
2019-04-10T23:30:27.088Z,28.00
2019-04-10T23:32:53.632Z,28.00
2019-04-10T23:35:21.178Z,28.00
2019-04-10T23:37:46.868Z,28.00
2019-04-10T23:40:12.839Z,28.10
2019-04-10T23:42:39.927Z,28.00
2019-04-10T23:45:05.483Z,27.90
2019-04-10T23:47:31.854Z,27.90
2019-04-10T23:49:58.163Z,27.90
2019-04-10T23:52:25.496Z,27.90
2019-04-10T23:54:52.036Z,28.00
2019-04-10T23:57:21.105Z,28.00
2019-04-10T23:59:46.821Z,28.00
